sensor_id;sensor_type;location;lat;lon;timestamp;pressure;altitude;pressure_sealevel;temperature;humidity
33506;BME280;19843;51.040;13.782;2023-02-02T00:01:47;99999.44;;;4.65;83.04
33506;BME280;19843;51.040;13.782;2023-02-02T00:04:16;100011.03;;;4.64;82.40
33506;BME280;19843;51.040;13.782;2023-02-02T00:06:47;99992.88;;;4.55;82.37
33506;BME280;19843;51.040;13.782;2023-02-02T00:09:17;99995.09;;;4.64;82.55
33506;BME280;19843;51.040;13.782;2023-02-02T00:11:47;99988.44;;;4.55;83.01
33506;BME280;19843;51.040;13.782;2023-02-02T00:14:16;100000.84;;;4.55;82.19
33506;BME280;19843;51.040;13.782;2023-02-02T00:16:45;99996.69;;;4.49;82.74
33506;BME280;19843;51.040;13.782;2023-02-02T00:19:14;99992.94;;;4.53;82.49
33506;BME280;19843;51.040;13.782;2023-02-02T00:21:42;99988.44;;;4.55;82.43
33506;BME280;19843;51.040;13.782;2023-02-02T00:24:12;99985.84;;;4.54;81.83
33506;BME280;19843;51.040;13.782;2023-02-02T00:26:41;99981.53;;;4.51;81.70
33506;BME280;19843;51.040;13.782;2023-02-02T00:29:14;99982.94;;;4.58;81.94
33506;BME280;19843;51.040;13.782;2023-02-02T00:31:41;99987.69;;;4.52;80.93
33506;BME280;19843;51.040;13.782;2023-02-02T00:34:10;99978.81;;;4.53;81.33
33506;BME280;19843;51.040;13.782;2023-02-02T00:36:38;99976.50;;;4.64;80.42
33506;BME280;19843;51.040;13.782;2023-02-02T00:39:06;99983.97;;;4.56;80.27
33506;BME280;19843;51.040;13.782;2023-02-02T00:41:33;99982.25;;;4.55;80.32
33506;BME280;19843;51.040;13.782;2023-02-02T00:44:00;99983.44;;;4.67;79.66
33506;BME280;19843;51.040;13.782;2023-02-02T00:46:46;99977.13;;;4.69;80.10
33506;BME280;19843;51.040;13.782;2023-02-02T00:49:14;99981.97;;;4.78;79.22
33506;BME280;19843;51.040;13.782;2023-02-02T00:51:41;99975.41;;;4.68;79.28
33506;BME280;19843;51.040;13.782;2023-02-02T00:54:09;99975.41;;;4.68;79.51
33506;BME280;19843;51.040;13.782;2023-02-02T00:56:36;99980.84;;;4.65;79.04
33506;BME280;19843;51.040;13.782;2023-02-02T00:59:03;99982.44;;;4.69;78.89
33506;BME280;19843;51.040;13.782;2023-02-02T01:01:32;99979.78;;;4.69;79.01
33506;BME280;19843;51.040;13.782;2023-02-02T01:04:01;99984.31;;;4.67;78.08
33506;BME280;19843;51.040;13.782;2023-02-02T01:06:28;99980.72;;;4.68;79.00
33506;BME280;19843;51.040;13.782;2023-02-02T01:08:56;99977.34;;;4.65;78.53
33506;BME280;19843;51.040;13.782;2023-02-02T01:11:23;99973.31;;;4.75;79.37
33506;BME280;19843;51.040;13.782;2023-02-02T01:13:51;99981.19;;;4.76;78.19
33506;BME280;19843;51.040;13.782;2023-02-02T01:16:18;99973.44;;;4.72;78.29
33506;BME280;19843;51.040;13.782;2023-02-02T01:18:47;99977.41;;;4.63;78.51
33506;BME280;19843;51.040;13.782;2023-02-02T01:21:17;99975.53;;;4.65;78.26
33506;BME280;19843;51.040;13.782;2023-02-02T01:23:44;99981.41;;;4.72;78.22
33506;BME280;19843;51.040;13.782;2023-02-02T01:26:12;99986.34;;;4.62;78.19
33506;BME280;19843;51.040;13.782;2023-02-02T01:28:40;99992.50;;;4.63;78.39
33506;BME280;19843;51.040;13.782;2023-02-02T01:31:09;99976.66;;;4.61;78.24
33506;BME280;19843;51.040;13.782;2023-02-02T01:33:38;99987.13;;;4.64;78.56
33506;BME280;19843;51.040;13.782;2023-02-02T01:36:07;99977.50;;;4.62;77.93
33506;BME280;19843;51.040;13.782;2023-02-02T01:38:37;99964.47;;;4.57;78.55
33506;BME280;19843;51.040;13.782;2023-02-02T01:41:05;99971.34;;;4.61;78.09
33506;BME280;19843;51.040;13.782;2023-02-02T01:43:54;99969.53;;;4.62;77.61
33506;BME280;19843;51.040;13.782;2023-02-02T01:46:24;99964.63;;;4.71;77.62
33506;BME280;19843;51.040;13.782;2023-02-02T01:48:55;99974.00;;;4.61;77.30
33506;BME280;19843;51.040;13.782;2023-02-02T01:51:29;99973.63;;;4.69;76.91
33506;BME280;19843;51.040;13.782;2023-02-02T01:53:59;99971.34;;;4.78;77.16
33506;BME280;19843;51.040;13.782;2023-02-02T01:56:30;99972.75;;;4.86;77.32
33506;BME280;19843;51.040;13.782;2023-02-02T01:58:59;99969.53;;;4.79;78.03
33506;BME280;19843;51.040;13.782;2023-02-02T02:01:27;99953.00;;;4.74;77.82
33506;BME280;19843;51.040;13.782;2023-02-02T02:03:55;99959.00;;;4.60;77.98
33506;BME280;19843;51.040;13.782;2023-02-02T02:06:23;99949.16;;;4.62;77.93
33506;BME280;19843;51.040;13.782;2023-02-02T02:08:54;99963.84;;;4.69;77.58
33506;BME280;19843;51.040;13.782;2023-02-02T02:11:24;99958.22;;;4.75;77.62
33506;BME280;19843;51.040;13.782;2023-02-02T02:13:54;99959.38;;;4.70;77.93
33506;BME280;19843;51.040;13.782;2023-02-02T02:16:53;99960.88;;;4.75;77.50
33506;BME280;19843;51.040;13.782;2023-02-02T02:19:55;99968.69;;;4.78;77.52
33506;BME280;19843;51.040;13.782;2023-02-02T02:26:19;99981.06;;;4.79;76.64
33506;BME280;19843;51.040;13.782;2023-02-02T02:29:17;99964.94;;;4.82;76.02
33506;BME280;19843;51.040;13.782;2023-02-02T02:32:23;99967.06;;;4.76;76.78
33506;BME280;19843;51.040;13.782;2023-02-02T02:34:56;99967.84;;;4.78;75.90
33506;BME280;19843;51.040;13.782;2023-02-02T02:37:32;99954.16;;;4.68;76.25
33506;BME280;19843;51.040;13.782;2023-02-02T02:40:09;99964.78;;;4.86;75.79
33506;BME280;19843;51.040;13.782;2023-02-02T02:42:41;99964.34;;;4.77;75.86
33506;BME280;19843;51.040;13.782;2023-02-02T02:45:11;99972.75;;;4.86;75.58
33506;BME280;19843;51.040;13.782;2023-02-02T02:47:41;99956.44;;;4.93;74.70
33506;BME280;19843;51.040;13.782;2023-02-02T02:50:09;99960.03;;;4.92;75.37
33506;BME280;19843;51.040;13.782;2023-02-02T02:52:37;99948.84;;;4.86;75.14
33506;BME280;19843;51.040;13.782;2023-02-02T02:55:05;99960.91;;;4.93;74.80
33506;BME280;19843;51.040;13.782;2023-02-02T02:57:41;99960.25;;;4.88;74.89
33506;BME280;19843;51.040;13.782;2023-02-02T03:00:38;99961.75;;;4.93;74.75
33506;BME280;19843;51.040;13.782;2023-02-02T03:03:15;99952.84;;;4.94;73.81
33506;BME280;19843;51.040;13.782;2023-02-02T03:05:51;99954.16;;;5.03;74.29
33506;BME280;19843;51.040;13.782;2023-02-02T03:08:24;99962.31;;;5.00;75.04
33506;BME280;19843;51.040;13.782;2023-02-02T03:10:54;99959.41;;;5.05;73.92
33506;BME280;19843;51.040;13.782;2023-02-02T03:13:23;99964.41;;;4.93;74.19
33506;BME280;19843;51.040;13.782;2023-02-02T03:15:52;99969.50;;;4.98;73.66
33506;BME280;19843;51.040;13.782;2023-02-02T03:18:23;99980.19;;;4.96;74.01
33506;BME280;19843;51.040;13.782;2023-02-02T03:20:52;99967.75;;;4.97;74.63
33506;BME280;19843;51.040;13.782;2023-02-02T03:23:20;99973.06;;;4.97;73.64
33506;BME280;19843;51.040;13.782;2023-02-02T03:25:47;99967.63;;;5.00;73.88
33506;BME280;19843;51.040;13.782;2023-02-02T03:28:16;99977.78;;;5.09;72.77
33506;BME280;19843;51.040;13.782;2023-02-02T03:30:45;99967.28;;;5.06;73.08
33506;BME280;19843;51.040;13.782;2023-02-02T03:33:14;99990.75;;;5.15;72.59
33506;BME280;19843;51.040;13.782;2023-02-02T03:35:44;99965.41;;;5.08;72.59
33506;BME280;19843;51.040;13.782;2023-02-02T03:38:11;99973.31;;;5.10;72.73
33506;BME280;19843;51.040;13.782;2023-02-02T03:40:39;99979.50;;;5.10;72.86
33506;BME280;19843;51.040;13.782;2023-02-02T03:43:07;99976.03;;;5.08;72.84
33506;BME280;19843;51.040;13.782;2023-02-02T03:45:34;99992.72;;;5.12;72.43
33506;BME280;19843;51.040;13.782;2023-02-02T03:48:02;99977.91;;;5.06;72.39
33506;BME280;19843;51.040;13.782;2023-02-02T03:50:30;99993.25;;;5.18;71.80
33506;BME280;19843;51.040;13.782;2023-02-02T03:52:59;99991.63;;;5.16;72.77
33506;BME280;19843;51.040;13.782;2023-02-02T03:55:26;99990.97;;;5.11;72.43
33506;BME280;19843;51.040;13.782;2023-02-02T03:57:53;99991.22;;;5.23;72.45
33506;BME280;19843;51.040;13.782;2023-02-02T04:00:21;99986.00;;;5.05;72.33
33506;BME280;19843;51.040;13.782;2023-02-02T04:02:48;99981.34;;;5.08;71.58
33506;BME280;19843;51.040;13.782;2023-02-02T04:05:16;99983.53;;;5.17;71.71
33506;BME280;19843;51.040;13.782;2023-02-02T04:07:43;100002.94;;;5.19;72.30
33506;BME280;19843;51.040;13.782;2023-02-02T04:10:12;99987.22;;;5.15;71.37
33506;BME280;19843;51.040;13.782;2023-02-02T04:12:39;99987.41;;;5.29;71.67
33506;BME280;19843;51.040;13.782;2023-02-02T04:15:07;99998.94;;;5.28;71.73
33506;BME280;19843;51.040;13.782;2023-02-02T04:17:35;99994.41;;;5.13;71.33
33506;BME280;19843;51.040;13.782;2023-02-02T04:20:03;100009.22;;;5.18;70.99
33506;BME280;19843;51.040;13.782;2023-02-02T04:22:31;100003.66;;;5.23;71.28
33506;BME280;19843;51.040;13.782;2023-02-02T04:24:59;100010.47;;;5.11;71.29
33506;BME280;19843;51.040;13.782;2023-02-02T04:27:28;100020.13;;;5.12;70.52
33506;BME280;19843;51.040;13.782;2023-02-02T04:29:57;100016.78;;;5.26;70.80
33506;BME280;19843;51.040;13.782;2023-02-02T04:32:25;100025.94;;;5.20;70.81
33506;BME280;19843;51.040;13.782;2023-02-02T04:34:52;100018.56;;;5.26;71.02
33506;BME280;19843;51.040;13.782;2023-02-02T04:37:19;100014.66;;;5.15;71.28
33506;BME280;19843;51.040;13.782;2023-02-02T04:39:47;100019.59;;;5.23;70.51
33506;BME280;19843;51.040;13.782;2023-02-02T04:42:15;100033.44;;;5.30;70.61
33506;BME280;19843;51.040;13.782;2023-02-02T04:44:44;100032.97;;;5.21;71.01
33506;BME280;19843;51.040;13.782;2023-02-02T04:47:12;100032.16;;;5.19;71.15
33506;BME280;19843;51.040;13.782;2023-02-02T04:49:39;100032.28;;;5.18;71.40
33506;BME280;19843;51.040;13.782;2023-02-02T04:52:06;100029.06;;;5.11;71.56
33506;BME280;19843;51.040;13.782;2023-02-02T04:54:34;100034.84;;;5.19;71.70
33506;BME280;19843;51.040;13.782;2023-02-02T04:57:01;100044.84;;;5.14;71.79
33506;BME280;19843;51.040;13.782;2023-02-02T04:59:29;100035.91;;;5.15;71.19
33506;BME280;19843;51.040;13.782;2023-02-02T05:01:59;100040.78;;;5.07;71.23
33506;BME280;19843;51.040;13.782;2023-02-02T05:04:26;100042.41;;;5.10;71.50
33506;BME280;19843;51.040;13.782;2023-02-02T05:06:54;100032.50;;;5.13;71.88
33506;BME280;19843;51.040;13.782;2023-02-02T05:09:21;100038.22;;;5.23;71.59
33506;BME280;19843;51.040;13.782;2023-02-02T05:11:49;100057.97;;;5.17;71.43
33506;BME280;19843;51.040;13.782;2023-02-02T05:14:16;100050.94;;;5.16;70.96
33506;BME280;19843;51.040;13.782;2023-02-02T05:16:45;100049.47;;;5.28;71.48
33506;BME280;19843;51.040;13.782;2023-02-02T05:19:14;100060.31;;;5.23;71.36
33506;BME280;19843;51.040;13.782;2023-02-02T05:21:42;100069.16;;;5.24;71.23
33506;BME280;19843;51.040;13.782;2023-02-02T05:24:11;100071.81;;;5.24;71.27
33506;BME280;19843;51.040;13.782;2023-02-02T05:26:38;100071.50;;;5.30;71.59
33506;BME280;19843;51.040;13.782;2023-02-02T05:29:06;100086.28;;;5.18;71.87
33506;BME280;19843;51.040;13.782;2023-02-02T05:31:34;100079.47;;;5.13;72.12
33506;BME280;19843;51.040;13.782;2023-02-02T05:34:02;100088.84;;;5.20;72.31
33506;BME280;19843;51.040;13.782;2023-02-02T05:36:31;100090.81;;;5.16;71.77
33506;BME280;19843;51.040;13.782;2023-02-02T05:38:58;100095.56;;;5.10;71.48
33506;BME280;19843;51.040;13.782;2023-02-02T05:41:26;100108.63;;;5.14;71.56
33506;BME280;19843;51.040;13.782;2023-02-02T05:43:53;100093.88;;;5.26;71.31
33506;BME280;19843;51.040;13.782;2023-02-02T05:46:21;100089.16;;;5.14;71.34
33506;BME280;19843;51.040;13.782;2023-02-02T05:48:48;100102.53;;;5.12;71.64
33506;BME280;19843;51.040;13.782;2023-02-02T05:51:18;100097.69;;;5.20;71.33
33506;BME280;19843;51.040;13.782;2023-02-02T05:53:48;100110.84;;;5.23;71.56
33506;BME280;19843;51.040;13.782;2023-02-02T05:56:15;100114.56;;;5.19;71.82
33506;BME280;19843;51.040;13.782;2023-02-02T05:58:43;100130.22;;;5.26;70.97
33506;BME280;19843;51.040;13.782;2023-02-02T06:01:12;100127.78;;;5.21;71.29
33506;BME280;19843;51.040;13.782;2023-02-02T06:03:40;100129.59;;;5.20;71.16
33506;BME280;19843;51.040;13.782;2023-02-02T06:06:08;100134.38;;;5.31;71.37
33506;BME280;19843;51.040;13.782;2023-02-02T06:08:35;100134.69;;;5.25;71.81
33506;BME280;19843;51.040;13.782;2023-02-02T06:11:09;100147.75;;;5.30;71.54
33506;BME280;19843;51.040;13.782;2023-02-02T06:13:36;100137.81;;;5.33;71.71
33506;BME280;19843;51.040;13.782;2023-02-02T06:16:04;100149.47;;;5.31;71.68
33506;BME280;19843;51.040;13.782;2023-02-02T06:18:32;100152.91;;;5.33;72.23
33506;BME280;19843;51.040;13.782;2023-02-02T06:21:01;100156.34;;;5.35;72.62
33506;BME280;19843;51.040;13.782;2023-02-02T06:23:29;100154.72;;;5.32;72.77
33506;BME280;19843;51.040;13.782;2023-02-02T06:25:56;100165.50;;;5.29;72.86
33506;BME280;19843;51.040;13.782;2023-02-02T06:28:25;100171.97;;;5.23;73.01
33506;BME280;19843;51.040;13.782;2023-02-02T06:30:52;100167.84;;;5.18;72.68
33506;BME280;19843;51.040;13.782;2023-02-02T06:33:20;100174.19;;;5.33;73.44
33506;BME280;19843;51.040;13.782;2023-02-02T06:35:47;100158.28;;;5.31;73.15
33506;BME280;19843;51.040;13.782;2023-02-02T06:38:15;100166.13;;;5.34;72.33
33506;BME280;19843;51.040;13.782;2023-02-02T06:40:44;100172.59;;;5.29;72.26
33506;BME280;19843;51.040;13.782;2023-02-02T06:43:11;100169.38;;;5.22;72.99
33506;BME280;19843;51.040;13.782;2023-02-02T06:45:42;100182.16;;;5.33;73.15
33506;BME280;19843;51.040;13.782;2023-02-02T06:48:09;100166.81;;;5.20;73.58
33506;BME280;19843;51.040;13.782;2023-02-02T06:50:37;100167.44;;;5.26;73.77
33506;BME280;19843;51.040;13.782;2023-02-02T06:53:05;100177.81;;;5.13;73.35
33506;BME280;19843;51.040;13.782;2023-02-02T06:55:32;100184.41;;;5.23;73.18
33506;BME280;19843;51.040;13.782;2023-02-02T06:58:00;100185.50;;;5.19;73.92
33506;BME280;19843;51.040;13.782;2023-02-02T07:00:28;100181.19;;;5.16;73.48
33506;BME280;19843;51.040;13.782;2023-02-02T07:02:57;100205.03;;;5.18;73.80
33506;BME280;19843;51.040;13.782;2023-02-02T07:05:26;100190.75;;;5.20;73.93
33506;BME280;19843;51.040;13.782;2023-02-02T07:07:56;100193.31;;;5.22;73.50
33506;BME280;19843;51.040;13.782;2023-02-02T07:10:23;100201.50;;;5.17;74.10
33506;BME280;19843;51.040;13.782;2023-02-02T07:13:11;100199.56;;;5.21;74.79
33506;BME280;19843;51.040;13.782;2023-02-02T07:15:39;100217.31;;;5.20;75.15
33506;BME280;19843;51.040;13.782;2023-02-02T07:18:08;100203.38;;;5.15;74.91
33506;BME280;19843;51.040;13.782;2023-02-02T07:20:35;100210.94;;;5.25;75.78
33506;BME280;19843;51.040;13.782;2023-02-02T07:23:03;100218.47;;;5.34;74.96
33506;BME280;19843;51.040;13.782;2023-02-02T07:25:30;100221.41;;;5.28;75.07
33506;BME280;19843;51.040;13.782;2023-02-02T07:27:57;100223.22;;;5.27;75.27
33506;BME280;19843;51.040;13.782;2023-02-02T07:30:25;100228.88;;;5.38;74.82
33506;BME280;19843;51.040;13.782;2023-02-02T07:32:55;100226.72;;;5.28;74.82
33506;BME280;19843;51.040;13.782;2023-02-02T07:35:24;100237.75;;;5.37;74.76
33506;BME280;19843;51.040;13.782;2023-02-02T07:37:52;100238.94;;;5.32;75.38
33506;BME280;19843;51.040;13.782;2023-02-02T07:40:20;100239.72;;;5.34;77.00
33506;BME280;19843;51.040;13.782;2023-02-02T07:42:48;100240.72;;;5.12;77.97
33506;BME280;19843;51.040;13.782;2023-02-02T07:45:15;100241.25;;;5.20;78.37
33506;BME280;19843;51.040;13.782;2023-02-02T07:47:56;100244.03;;;5.17;78.43
33506;BME280;19843;51.040;13.782;2023-02-02T07:50:27;100243.09;;;5.18;77.84
33506;BME280;19843;51.040;13.782;2023-02-02T07:52:55;100249.69;;;5.29;77.63
33506;BME280;19843;51.040;13.782;2023-02-02T07:55:22;100249.47;;;5.33;75.79
33506;BME280;19843;51.040;13.782;2023-02-02T07:57:50;100254.56;;;5.38;76.17
33506;BME280;19843;51.040;13.782;2023-02-02T08:00:18;100266.00;;;5.40;75.70
33506;BME280;19843;51.040;13.782;2023-02-02T08:02:47;100265.72;;;5.46;75.26
33506;BME280;19843;51.040;13.782;2023-02-02T08:05:15;100261.25;;;5.47;75.27
33506;BME280;19843;51.040;13.782;2023-02-02T08:07:44;100255.38;;;5.40;74.97
33506;BME280;19843;51.040;13.782;2023-02-02T08:10:11;100262.56;;;5.57;74.76
33506;BME280;19843;51.040;13.782;2023-02-02T08:12:38;100259.94;;;5.55;74.16
33506;BME280;19843;51.040;13.782;2023-02-02T08:15:07;100274.03;;;5.57;74.78
33506;BME280;19843;51.040;13.782;2023-02-02T08:17:34;100283.31;;;5.49;74.79
33506;BME280;19843;51.040;13.782;2023-02-02T08:20:03;100287.41;;;5.56;74.23
33506;BME280;19843;51.040;13.782;2023-02-02T08:22:30;100279.59;;;5.53;74.82
33506;BME280;19843;51.040;13.782;2023-02-02T08:24:59;100294.53;;;5.55;74.35
33506;BME280;19843;51.040;13.782;2023-02-02T08:27:26;100289.81;;;5.43;74.08
33506;BME280;19843;51.040;13.782;2023-02-02T08:29:54;100294.97;;;5.46;74.34
33506;BME280;19843;51.040;13.782;2023-02-02T08:32:21;100296.84;;;5.44;74.77
33506;BME280;19843;51.040;13.782;2023-02-02T08:34:49;100302.72;;;5.51;74.79
33506;BME280;19843;51.040;13.782;2023-02-02T08:37:17;100302.56;;;5.54;74.72
33506;BME280;19843;51.040;13.782;2023-02-02T08:39:44;100315.00;;;5.53;75.01
33506;BME280;19843;51.040;13.782;2023-02-02T08:42:13;100305.16;;;5.55;74.89
33506;BME280;19843;51.040;13.782;2023-02-02T08:44:40;100306.97;;;5.55;74.14
33506;BME280;19843;51.040;13.782;2023-02-02T08:47:28;100311.44;;;5.54;74.49
33506;BME280;19843;51.040;13.782;2023-02-02T08:49:56;100306.41;;;5.48;74.89
33506;BME280;19843;51.040;13.782;2023-02-02T08:52:23;100306.41;;;5.48;75.01
33506;BME280;19843;51.040;13.782;2023-02-02T08:54:51;100315.28;;;5.47;75.18
33506;BME280;19843;51.040;13.782;2023-02-02T08:57:19;100317.09;;;5.65;74.86
33506;BME280;19843;51.040;13.782;2023-02-02T08:59:47;100319.69;;;5.48;76.15
33506;BME280;19843;51.040;13.782;2023-02-02T09:02:14;100326.00;;;5.64;77.15
33506;BME280;19843;51.040;13.782;2023-02-02T09:04:43;100333.28;;;5.42;77.38
33506;BME280;19843;51.040;13.782;2023-02-02T09:07:12;100339.09;;;5.50;77.29
33506;BME280;19843;51.040;13.782;2023-02-02T09:09:39;100335.72;;;5.47;77.16
33506;BME280;19843;51.040;13.782;2023-02-02T09:12:07;100335.50;;;5.51;77.33
33506;BME280;19843;51.040;13.782;2023-02-02T09:14:35;100339.59;;;5.58;76.98
33506;BME280;19843;51.040;13.782;2023-02-02T09:17:03;100340.41;;;5.41;77.71
33506;BME280;19843;51.040;13.782;2023-02-02T09:19:30;100341.19;;;5.43;77.16
33506;BME280;19843;51.040;13.782;2023-02-02T09:21:58;100338.53;;;5.43;77.75
33506;BME280;19843;51.040;13.782;2023-02-02T09:24:25;100346.28;;;5.48;77.47
33506;BME280;19843;51.040;13.782;2023-02-02T09:26:53;100350.38;;;5.55;77.29
33506;BME280;19843;51.040;13.782;2023-02-02T09:29:20;100353.31;;;5.49;77.59
33506;BME280;19843;51.040;13.782;2023-02-02T09:31:49;100357.19;;;5.42;79.32
33506;BME280;19843;51.040;13.782;2023-02-02T09:34:16;100366.56;;;5.51;79.99
33506;BME280;19843;51.040;13.782;2023-02-02T09:36:44;100358.38;;;5.36;80.49
33506;BME280;19843;51.040;13.782;2023-02-02T09:39:12;100369.91;;;5.35;81.68
33506;BME280;19843;51.040;13.782;2023-02-02T09:45:05;100381.28;;;5.39;81.76
33506;BME280;19843;51.040;13.782;2023-02-02T09:47:52;100381.50;;;5.34;82.01
33506;BME280;19843;51.040;13.782;2023-02-02T09:50:36;100383.94;;;5.39;82.01
33506;BME280;19843;51.040;13.782;2023-02-02T09:53:12;100388.69;;;5.32;82.83
33506;BME280;19843;51.040;13.782;2023-02-02T09:55:42;100391.28;;;5.34;83.30
33506;BME280;19843;51.040;13.782;2023-02-02T09:58:14;100399.25;;;5.34;83.45
33506;BME280;19843;51.040;13.782;2023-02-02T10:00:45;100406.66;;;5.27;84.07
33506;BME280;19843;51.040;13.782;2023-02-02T10:03:18;100398.31;;;5.35;83.86
33506;BME280;19843;51.040;13.782;2023-02-02T10:05:51;100400.97;;;5.35;84.04
33506;BME280;19843;51.040;13.782;2023-02-02T10:08:27;100404.38;;;5.38;84.65
33506;BME280;19843;51.040;13.782;2023-02-02T10:11:05;100403.84;;;5.49;82.68
33506;BME280;19843;51.040;13.782;2023-02-02T10:13:37;100413.69;;;5.47;82.46
33506;BME280;19843;51.040;13.782;2023-02-02T10:16:13;100399.63;;;5.45;82.08
33506;BME280;19843;51.040;13.782;2023-02-02T10:18:47;100408.53;;;5.44;80.89
33506;BME280;19843;51.040;13.782;2023-02-02T10:21:24;100413.16;;;5.59;80.14
33506;BME280;19843;51.040;13.782;2023-02-02T10:23:52;100391.72;;;5.62;81.17
33506;BME280;19843;51.040;13.782;2023-02-02T10:26:21;100407.66;;;5.62;81.99
33506;BME280;19843;51.040;13.782;2023-02-02T10:29:02;100403.88;;;5.68;81.05
33506;BME280;19843;51.040;13.782;2023-02-02T10:31:42;100406.38;;;5.71;81.54
33506;BME280;19843;51.040;13.782;2023-02-02T10:34:16;100413.28;;;5.56;83.59
33506;BME280;19843;51.040;13.782;2023-02-02T10:36:52;100413.56;;;5.50;85.18
33506;BME280;19843;51.040;13.782;2023-02-02T10:39:27;100414.44;;;5.51;86.52
33506;BME280;19843;51.040;13.782;2023-02-02T10:42:08;100409.69;;;5.57;87.23
33506;BME280;19843;51.040;13.782;2023-02-02T10:44:44;100417.78;;;5.35;87.75
33506;BME280;19843;51.040;13.782;2023-02-02T10:47:22;100413.63;;;5.30;88.58
33506;BME280;19843;51.040;13.782;2023-02-02T10:49:58;100420.84;;;5.26;88.45
33506;BME280;19843;51.040;13.782;2023-02-02T10:52:31;100411.66;;;5.33;89.38
33506;BME280;19843;51.040;13.782;2023-02-02T10:55:01;100405.44;;;5.34;88.99
33506;BME280;19843;51.040;13.782;2023-02-02T10:57:46;100414.53;;;5.29;89.64
33506;BME280;19843;51.040;13.782;2023-02-02T11:00:19;100415.78;;;5.40;89.06
33506;BME280;19843;51.040;13.782;2023-02-02T11:02:49;100418.59;;;5.56;88.16
33506;BME280;19843;51.040;13.782;2023-02-02T11:05:21;100425.00;;;5.52;88.22
33506;BME280;19843;51.040;13.782;2023-02-02T11:08:14;100429.59;;;5.68;89.10
33506;BME280;19843;51.040;13.782;2023-02-02T11:10:42;100430.97;;;5.57;87.49
33506;BME280;19843;51.040;13.782;2023-02-02T11:13:15;100423.50;;;5.65;88.01
33506;BME280;19843;51.040;13.782;2023-02-02T11:15:43;100424.44;;;5.64;87.17
33506;BME280;19843;51.040;13.782;2023-02-02T11:18:26;100428.97;;;5.62;86.65
33506;BME280;19843;51.040;13.782;2023-02-02T11:20:56;100428.25;;;5.78;86.22
33506;BME280;19843;51.040;13.782;2023-02-02T11:23:25;100425.81;;;5.73;84.53
33506;BME280;19843;51.040;13.782;2023-02-02T11:25:58;100436.03;;;5.82;85.59
33506;BME280;19843;51.040;13.782;2023-02-02T11:28:29;100431.13;;;5.92;84.63
33506;BME280;19843;51.040;13.782;2023-02-02T11:30:59;100438.41;;;6.07;84.29
33506;BME280;19843;51.040;13.782;2023-02-02T11:33:29;100434.03;;;6.06;84.91
33506;BME280;19843;51.040;13.782;2023-02-02T11:36:01;100435.16;;;5.82;83.76
33506;BME280;19843;51.040;13.782;2023-02-02T11:38:29;100444.25;;;5.97;84.68
33506;BME280;19843;51.040;13.782;2023-02-02T11:40:59;100437.47;;;6.09;83.93
33506;BME280;19843;51.040;13.782;2023-02-02T11:43:30;100443.88;;;6.04;83.98
33506;BME280;19843;51.040;13.782;2023-02-02T11:46:00;100451.63;;;6.28;84.12
33506;BME280;19843;51.040;13.782;2023-02-02T11:48:31;100450.09;;;6.41;82.45
33506;BME280;19843;51.040;13.782;2023-02-02T11:51:04;100456.09;;;6.27;82.56
33506;BME280;19843;51.040;13.782;2023-02-02T11:53:35;100450.00;;;6.06;83.67
33506;BME280;19843;51.040;13.782;2023-02-02T11:56:09;100457.09;;;6.25;83.42
33506;BME280;19843;51.040;13.782;2023-02-02T11:58:44;100448.34;;;6.23;83.34
33506;BME280;19843;51.040;13.782;2023-02-02T12:01:23;100461.78;;;6.20;85.69
33506;BME280;19843;51.040;13.782;2023-02-02T12:03:52;100452.63;;;6.25;85.07
33506;BME280;19843;51.040;13.782;2023-02-02T12:06:23;100463.34;;;6.24;85.42
33506;BME280;19843;51.040;13.782;2023-02-02T12:08:54;100459.16;;;6.37;86.06
33506;BME280;19843;51.040;13.782;2023-02-02T12:11:35;100458.72;;;6.46;85.21
33506;BME280;19843;51.040;13.782;2023-02-02T12:14:17;100461.88;;;6.55;84.92
33506;BME280;19843;51.040;13.782;2023-02-02T12:16:53;100443.28;;;6.53;83.41
33506;BME280;19843;51.040;13.782;2023-02-02T12:22:27;100458.19;;;6.57;81.94
33506;BME280;19843;51.040;13.782;2023-02-02T12:25:05;100455.94;;;6.67;83.42
33506;BME280;19843;51.040;13.782;2023-02-02T12:27:44;100457.97;;;6.25;82.85
33506;BME280;19843;51.040;13.782;2023-02-02T12:30:25;100459.41;;;6.33;81.71
33506;BME280;19843;51.040;13.782;2023-02-02T12:33:03;100455.34;;;6.43;82.05
33506;BME280;19843;51.040;13.782;2023-02-02T12:35:47;100458.88;;;6.24;82.54
33506;BME280;19843;51.040;13.782;2023-02-02T12:38:25;100465.97;;;6.25;83.69
33506;BME280;19843;51.040;13.782;2023-02-02T12:41:16;100463.50;;;6.21;83.31
33506;BME280;19843;51.040;13.782;2023-02-02T12:43:51;100465.13;;;6.42;83.09
33506;BME280;19843;51.040;13.782;2023-02-02T12:46:33;100465.22;;;6.41;82.55
33506;BME280;19843;51.040;13.782;2023-02-02T12:49:22;100477.28;;;6.48;81.98
33506;BME280;19843;51.040;13.782;2023-02-02T12:52:15;100476.50;;;6.46;81.70
33506;BME280;19843;51.040;13.782;2023-02-02T12:55:03;100467.44;;;6.50;80.74
33506;BME280;19843;51.040;13.782;2023-02-02T12:57:43;100483.63;;;6.82;79.39
33506;BME280;19843;51.040;13.782;2023-02-02T13:00:26;100486.88;;;6.69;79.22
33506;BME280;19843;51.040;13.782;2023-02-02T13:03:08;100496.06;;;6.64;79.21
33506;BME280;19843;51.040;13.782;2023-02-02T13:05:54;100486.47;;;6.60;79.21
33506;BME280;19843;51.040;13.782;2023-02-02T13:08:26;100494.94;;;6.51;79.35
33506;BME280;19843;51.040;13.782;2023-02-02T13:11:01;100495.09;;;6.47;79.74
33506;BME280;19843;51.040;13.782;2023-02-02T13:13:32;100500.06;;;6.36;80.76
33506;BME280;19843;51.040;13.782;2023-02-02T13:16:05;100498.91;;;6.42;80.85
33506;BME280;19843;51.040;13.782;2023-02-02T13:18:36;100489.59;;;6.51;81.25
33506;BME280;19843;51.040;13.782;2023-02-02T13:21:09;100495.88;;;6.50;81.31
33506;BME280;19843;51.040;13.782;2023-02-02T13:23:41;100494.94;;;6.51;81.48